createdAt,value
2017-07-30T00:01:31.879Z,19.70
2017-07-30T00:03:59.380Z,19.70
2017-07-30T00:06:26.904Z,19.70
2017-07-30T00:08:54.438Z,19.70
2017-07-30T00:11:21.974Z,19.70
2017-07-30T00:13:49.717Z,19.70
2017-07-30T00:16:17.248Z,19.60
2017-07-30T00:18:44.762Z,19.60
2017-07-30T00:21:12.294Z,19.60
2017-07-30T00:23:39.810Z,19.50
2017-07-30T00:26:07.344Z,19.50
2017-07-30T00:28:34.844Z,19.50
2017-07-30T00:31:02.369Z,19.50
2017-07-30T00:33:29.874Z,19.50
2017-07-30T00:35:57.397Z,19.50
2017-07-30T00:38:24.904Z,19.50
2017-07-30T00:40:52.444Z,19.50
2017-07-30T00:43:19.944Z,19.50
2017-07-30T00:45:47.473Z,19.50
2017-07-30T00:48:14.980Z,19.50
2017-07-30T00:50:42.489Z,19.50
2017-07-30T00:53:10.021Z,19.40
2017-07-30T00:55:37.518Z,19.40
2017-07-30T00:58:05.035Z,19.40
2017-07-30T01:00:32.542Z,19.40
2017-07-30T01:03:00.069Z,19.40
2017-07-30T01:05:27.583Z,19.40
2017-07-30T01:07:55.109Z,19.40
2017-07-30T01:10:22.605Z,19.40
2017-07-30T01:12:50.132Z,19.40
2017-07-30T01:15:17.636Z,19.40
2017-07-30T01:17:45.164Z,19.40
2017-07-30T01:20:12.725Z,19.40
2017-07-30T01:22:40.238Z,19.40
2017-07-30T01:25:07.735Z,19.40
2017-07-30T01:27:35.257Z,19.40
2017-07-30T01:30:02.771Z,19.40
2017-07-30T01:32:30.293Z,19.40
2017-07-30T01:34:57.802Z,19.40
2017-07-30T01:37:25.318Z,19.40
2017-07-30T01:39:52.828Z,19.40
2017-07-30T01:42:20.349Z,19.40
2017-07-30T01:44:47.844Z,19.30
2017-07-30T01:47:15.369Z,19.30
2017-07-30T01:49:42.874Z,19.30
2017-07-30T01:52:10.403Z,19.30
2017-07-30T01:54:37.912Z,19.30
2017-07-30T01:57:05.434Z,19.20
2017-07-30T01:59:32.949Z,19.20
2017-07-30T02:02:00.490Z,19.20
2017-07-30T02:04:28.001Z,19.30
2017-07-30T02:06:55.521Z,19.30
2017-07-30T02:09:23.017Z,19.30
2017-07-30T02:11:50.559Z,19.30
2017-07-30T02:14:18.069Z,19.30
2017-07-30T02:16:45.594Z,19.40
2017-07-30T02:19:13.101Z,19.40
2017-07-30T02:21:40.626Z,19.40
2017-07-30T02:24:08.176Z,19.40
2017-07-30T02:26:35.717Z,19.40
2017-07-30T02:29:03.217Z,19.40
2017-07-30T02:31:30.744Z,19.40
2017-07-30T02:33:58.289Z,19.40
2017-07-30T02:36:25.805Z,19.40
2017-07-30T02:38:53.321Z,19.40
2017-07-30T02:41:20.842Z,19.30
2017-07-30T02:43:48.370Z,19.30
2017-07-30T02:46:15.924Z,19.30
2017-07-30T02:48:43.527Z,19.40
2017-07-30T02:51:11.097Z,19.30
2017-07-30T02:53:38.648Z,19.40
2017-07-30T02:56:06.183Z,19.40
2017-07-30T02:58:33.700Z,19.40
2017-07-30T03:01:01.243Z,19.50
2017-07-30T03:03:28.752Z,19.50
2017-07-30T03:05:56.289Z,19.50
2017-07-30T03:08:23.788Z,19.50
2017-07-30T03:10:51.321Z,19.50
2017-07-30T03:13:18.851Z,19.50
2017-07-30T03:15:46.349Z,19.50
2017-07-30T03:18:13.869Z,19.50
2017-07-30T03:20:41.368Z,19.50
2017-07-30T03:23:08.887Z,19.50
2017-07-30T03:25:36.373Z,19.50
2017-07-30T03:28:03.896Z,19.60
2017-07-30T03:30:31.393Z,19.60
2017-07-30T03:32:58.921Z,19.60
2017-07-30T03:35:26.417Z,19.60
2017-07-30T03:37:53.928Z,19.60
2017-07-30T03:40:21.428Z,19.70
2017-07-30T03:42:48.950Z,19.70
2017-07-30T03:45:16.492Z,19.70
2017-07-30T03:47:44.011Z,19.70
2017-07-30T03:50:11.512Z,19.70
2017-07-30T03:52:39.040Z,19.70
2017-07-30T03:55:06.537Z,19.80
2017-07-30T03:57:34.063Z,19.80
2017-07-30T04:00:01.564Z,19.80
2017-07-30T04:02:29.067Z,19.80
2017-07-30T04:04:56.573Z,19.90
2017-07-30T04:07:24.096Z,19.90
2017-07-30T04:09:51.597Z,19.90
2017-07-30T04:12:19.149Z,19.90
2017-07-30T04:14:46.658Z,20.00
2017-07-30T04:17:14.168Z,20.00
2017-07-30T04:19:41.661Z,20.00
2017-07-30T04:22:09.184Z,20.00
2017-07-30T04:24:36.681Z,20.10
2017-07-30T04:27:04.204Z,20.10
2017-07-30T04:29:31.704Z,20.10
2017-07-30T04:31:59.228Z,20.10
2017-07-30T04:34:26.960Z,20.20
2017-07-30T04:36:54.496Z,20.20
2017-07-30T04:39:22.000Z,20.30
2017-07-30T04:41:49.516Z,20.50
2017-07-30T04:44:17.012Z,21.10
2017-07-30T04:46:44.556Z,21.80
2017-07-30T04:49:12.105Z,22.30
2017-07-30T04:51:39.660Z,22.20
2017-07-30T04:54:07.176Z,21.90
2017-07-30T04:56:34.705Z,21.60
2017-07-30T04:59:02.215Z,21.30
2017-07-30T05:01:29.733Z,21.10
2017-07-30T05:03:57.237Z,21.00
2017-07-30T05:06:24.757Z,20.90
2017-07-30T05:08:52.264Z,21.00
2017-07-30T05:11:19.857Z,21.60
2017-07-30T05:13:47.390Z,22.80
2017-07-30T05:16:14.925Z,24.10
2017-07-30T05:18:42.434Z,25.20
2017-07-30T05:21:09.971Z,25.60
2017-07-30T05:23:37.474Z,26.10
2017-07-30T05:26:05.050Z,26.40
2017-07-30T05:28:32.597Z,26.70
2017-07-30T05:31:00.105Z,27.10
2017-07-30T05:33:27.669Z,27.20
2017-07-30T05:35:55.201Z,27.20
2017-07-30T05:38:22.757Z,27.00
2017-07-30T05:40:50.287Z,27.30
2017-07-30T05:43:17.877Z,27.70
2017-07-30T05:45:45.454Z,27.80
2017-07-30T05:48:13.029Z,27.70
2017-07-30T05:50:40.553Z,27.90
2017-07-30T05:53:08.146Z,28.10
2017-07-30T05:55:35.745Z,28.20
2017-07-30T05:58:03.270Z,28.30
2017-07-30T06:00:30.787Z,28.50
2017-07-30T06:02:58.315Z,29.00
2017-07-30T06:05:25.818Z,29.40
2017-07-30T06:07:53.349Z,29.60
2017-07-30T06:10:20.854Z,29.80
2017-07-30T06:12:48.669Z,29.70
2017-07-30T06:15:16.438Z,29.60
2017-07-30T06:17:44.383Z,29.70
2017-07-30T06:20:12.017Z,29.90
2017-07-30T06:22:39.536Z,30.10
2017-07-30T06:25:07.067Z,30.20
2017-07-30T06:27:34.853Z,30.00
2017-07-30T06:30:02.358Z,30.20
2017-07-30T06:32:29.935Z,30.30
2017-07-30T06:34:57.445Z,30.40
2017-07-30T06:37:25.030Z,29.90
2017-07-30T06:39:52.566Z,29.80
2017-07-30T06:42:20.114Z,29.70
2017-07-30T06:44:47.661Z,29.20
2017-07-30T06:47:15.233Z,28.50
2017-07-30T06:49:42.893Z,27.80
2017-07-30T06:52:10.451Z,27.30
2017-07-30T06:54:37.975Z,26.90
2017-07-30T06:57:05.601Z,26.60
2017-07-30T06:59:33.161Z,26.10
2017-07-30T07:02:00.804Z,25.80
2017-07-30T07:04:28.365Z,25.50
2017-07-30T07:06:55.892Z,25.20
2017-07-30T07:09:23.449Z,24.90
2017-07-30T07:11:51.013Z,24.90
2017-07-30T07:14:18.545Z,24.80
2017-07-30T07:16:46.807Z,24.70
2017-07-30T07:19:14.361Z,24.70
2017-07-30T07:21:42.002Z,24.70
2017-07-30T07:24:10.628Z,24.70
2017-07-30T07:26:38.156Z,24.80
2017-07-30T07:29:05.644Z,24.70
2017-07-30T07:31:36.824Z,24.70
2017-07-30T07:34:04.329Z,24.70
2017-07-30T07:36:31.849Z,24.70
2017-07-30T07:38:59.358Z,24.60
2017-07-30T07:41:26.890Z,24.60
2017-07-30T07:43:54.411Z,24.60
2017-07-30T07:46:21.963Z,24.60
2017-07-30T07:48:49.456Z,24.70
2017-07-30T07:51:16.960Z,24.70
2017-07-30T07:53:44.480Z,24.80
2017-07-30T07:56:12.919Z,24.90
2017-07-30T07:58:40.437Z,24.90
2017-07-30T08:01:07.933Z,24.80
2017-07-30T08:03:35.449Z,24.70
2017-07-30T08:06:02.945Z,24.70
2017-07-30T08:08:30.468Z,24.70
2017-07-30T08:10:57.982Z,24.80
2017-07-30T08:13:25.500Z,24.80
2017-07-30T08:15:53.000Z,24.90
2017-07-30T08:18:20.516Z,25.00
2017-07-30T08:20:48.019Z,25.10
2017-07-30T08:23:15.552Z,25.30
2017-07-30T08:25:43.049Z,25.30
2017-07-30T08:28:10.575Z,25.20
2017-07-30T08:30:38.099Z,25.20
2017-07-30T08:33:05.613Z,25.20
2017-07-30T08:35:35.105Z,25.20
2017-07-30T08:38:02.630Z,25.30
2017-07-30T08:40:33.281Z,25.20
2017-07-30T08:43:00.813Z,25.30
2017-07-30T08:45:28.312Z,25.30
2017-07-30T08:47:55.839Z,25.30
2017-07-30T08:50:23.338Z,25.40
2017-07-30T08:52:50.853Z,25.40
2017-07-30T08:55:18.361Z,25.40
2017-07-30T08:57:45.889Z,25.40
2017-07-30T09:00:13.386Z,25.40
2017-07-30T09:02:40.918Z,25.50
2017-07-30T09:05:08.418Z,25.60
2017-07-30T09:07:35.940Z,25.60
2017-07-30T09:10:03.433Z,25.60
2017-07-30T09:12:30.956Z,25.80
2017-07-30T09:14:58.453Z,25.70
2017-07-30T09:17:25.976Z,25.80
2017-07-30T09:19:53.503Z,25.80
2017-07-30T09:22:21.021Z,25.80
2017-07-30T09:24:48.508Z,25.80
2017-07-30T09:27:16.056Z,25.90
2017-07-30T09:29:43.582Z,25.90
2017-07-30T09:32:11.107Z,25.80
2017-07-30T09:34:38.625Z,25.80
2017-07-30T09:37:06.159Z,25.90
2017-07-30T09:39:36.940Z,25.80
2017-07-30T09:42:04.468Z,25.80
2017-07-30T09:44:32.201Z,25.80
2017-07-30T09:46:59.757Z,25.90
2017-07-30T09:49:27.360Z,26.10
2017-07-30T09:51:54.902Z,26.20
2017-07-30T09:54:22.442Z,26.40
2017-07-30T09:56:49.938Z,26.50
2017-07-30T09:59:17.461Z,26.50
2017-07-30T10:01:44.962Z,26.60
2017-07-30T10:04:12.485Z,26.70
2017-07-30T10:06:39.978Z,26.80
2017-07-30T10:09:07.505Z,26.80
2017-07-30T10:11:35.017Z,26.80
2017-07-30T10:14:02.554Z,26.70
2017-07-30T10:16:30.037Z,26.70
2017-07-30T10:18:57.553Z,26.70
2017-07-30T10:21:25.059Z,26.60
2017-07-30T10:23:52.590Z,26.50
2017-07-30T10:26:25.923Z,26.40
2017-07-30T10:28:53.456Z,26.50
2017-07-30T10:31:20.956Z,26.60
2017-07-30T10:33:48.501Z,26.60
2017-07-30T10:36:16.965Z,26.60
2017-07-30T10:38:47.705Z,26.50
2017-07-30T10:41:15.206Z,26.50
2017-07-30T10:43:42.721Z,26.60
2017-07-30T10:46:11.193Z,26.70
2017-07-30T10:48:38.712Z,26.70
2017-07-30T10:51:06.215Z,26.80
2017-07-30T10:53:33.728Z,27.00
2017-07-30T10:56:01.242Z,27.00
2017-07-30T10:58:28.765Z,27.00
2017-07-30T11:00:56.256Z,27.00
2017-07-30T11:03:23.768Z,27.10
2017-07-30T11:05:51.273Z,27.10
2017-07-30T11:08:18.789Z,27.10
2017-07-30T11:10:46.302Z,27.20
2017-07-30T11:13:13.822Z,27.30
2017-07-30T11:15:42.321Z,27.60
2017-07-30T11:18:09.840Z,27.80
2017-07-30T11:20:37.333Z,28.00
2017-07-30T11:23:04.849Z,28.20
2017-07-30T11:25:36.657Z,28.40
2017-07-30T11:28:04.177Z,28.60
2017-07-30T11:30:32.408Z,28.70
2017-07-30T11:32:59.912Z,28.70
2017-07-30T11:35:30.669Z,28.60
2017-07-30T11:37:58.189Z,28.50
2017-07-30T11:40:25.685Z,28.40
2017-07-30T11:42:53.198Z,28.30
2017-07-30T11:45:22.650Z,28.20
2017-07-30T11:47:50.176Z,28.30
2017-07-30T11:50:17.665Z,28.30
2017-07-30T11:52:45.185Z,28.50
2017-07-30T11:55:12.681Z,28.90
2017-07-30T11:57:40.198Z,29.10
2017-07-30T12:00:07.701Z,29.10
2017-07-30T12:02:35.217Z,29.10
2017-07-30T12:05:02.716Z,29.10
2017-07-30T12:07:30.226Z,29.10
2017-07-30T12:09:57.725Z,28.90
2017-07-30T12:12:25.245Z,28.70
2017-07-30T12:14:52.753Z,28.40
2017-07-30T12:17:20.259Z,28.00
2017-07-30T12:19:51.286Z,27.80
2017-07-30T12:22:18.798Z,27.70
2017-07-30T12:24:46.292Z,27.70
2017-07-30T12:27:13.812Z,27.80
2017-07-30T12:29:41.316Z,27.90
2017-07-30T12:32:08.868Z,28.00
2017-07-30T12:34:39.759Z,28.10
2017-07-30T12:37:07.281Z,28.20
2017-07-30T12:39:34.787Z,28.20
2017-07-30T12:42:02.354Z,28.30
2017-07-30T12:44:29.906Z,28.30
2017-07-30T12:46:57.433Z,28.50
2017-07-30T12:49:24.960Z,28.40
2017-07-30T12:51:52.464Z,28.50
2017-07-30T12:54:19.985Z,28.40
2017-07-30T12:56:47.508Z,28.40
2017-07-30T12:59:15.024Z,28.30
2017-07-30T13:01:42.527Z,28.30
2017-07-30T13:04:16.938Z,28.50
2017-07-30T13:06:44.441Z,28.70
2017-07-30T13:09:11.969Z,28.80
2017-07-30T13:11:39.472Z,28.80
2017-07-30T13:14:07.004Z,28.80
2017-07-30T13:16:34.500Z,28.70
2017-07-30T13:19:02.071Z,28.90
2017-07-30T13:21:29.588Z,28.80
2017-07-30T13:23:57.106Z,28.60
2017-07-30T13:26:24.613Z,28.50
2017-07-30T13:28:55.510Z,28.40
2017-07-30T13:31:23.006Z,28.50
2017-07-30T13:33:50.534Z,28.50
2017-07-30T13:36:20.018Z,28.30
2017-07-30T13:38:47.565Z,28.20
2017-07-30T13:41:18.761Z,28.20
2017-07-30T13:43:46.281Z,28.40
2017-07-30T13:46:20.677Z,28.40
2017-07-30T13:48:48.222Z,28.50
2017-07-30T13:51:15.744Z,28.60
2017-07-30T13:53:43.277Z,28.70
2017-07-30T13:59:28.302Z,28.60
2017-07-30T14:01:55.794Z,28.20
2017-07-30T14:04:23.332Z,28.00
2017-07-30T14:06:50.846Z,27.90
2017-07-30T14:09:18.368Z,27.90
2017-07-30T14:11:45.865Z,27.80
2017-07-30T14:14:13.393Z,27.60
2017-07-30T14:16:40.880Z,27.40
2017-07-30T14:19:08.403Z,26.90
2017-07-30T14:21:35.916Z,26.30
2017-07-30T14:24:03.475Z,25.80
2017-07-30T14:26:30.992Z,25.50
2017-07-30T14:28:58.546Z,25.30
2017-07-30T14:31:26.063Z,25.10
2017-07-30T14:33:53.599Z,25.10
2017-07-30T14:36:21.113Z,25.10
2017-07-30T14:38:48.629Z,25.10
2017-07-30T14:41:19.692Z,25.40
2017-07-30T14:43:47.221Z,25.30
2017-07-30T14:46:15.668Z,25.20
2017-07-30T14:48:43.193Z,25.00
2017-07-30T14:51:10.694Z,25.00
2017-07-30T14:53:38.228Z,25.00
2017-07-30T14:56:05.720Z,25.00
2017-07-30T14:58:33.261Z,24.70
2017-07-30T15:01:00.778Z,24.60
2017-07-30T15:03:28.300Z,24.90
2017-07-30T15:05:55.820Z,25.00
2017-07-30T15:08:23.365Z,25.20
2017-07-30T15:10:50.857Z,25.40
2017-07-30T15:13:18.388Z,25.60
2017-07-30T15:15:45.890Z,25.80
2017-07-30T15:18:13.424Z,25.80
2017-07-30T15:20:40.934Z,25.90
2017-07-30T15:23:08.450Z,26.00
2017-07-30T15:25:48.566Z,26.00
2017-07-30T15:28:16.093Z,25.80
2017-07-30T15:30:43.580Z,25.80
2017-07-30T15:33:11.094Z,25.80
2017-07-30T15:35:41.796Z,25.70
2017-07-30T15:38:09.313Z,26.00
2017-07-30T15:40:36.813Z,26.30
2017-07-30T15:43:04.325Z,26.30
2017-07-30T15:45:31.821Z,26.50
2017-07-30T15:47:59.362Z,26.50
2017-07-30T15:50:26.877Z,26.30
2017-07-30T15:52:54.389Z,26.20
2017-07-30T15:55:21.894Z,26.10
2017-07-30T15:57:49.421Z,26.00
2017-07-30T16:00:16.922Z,25.90
2017-07-30T16:02:44.445Z,25.60
2017-07-30T16:05:11.960Z,25.60
2017-07-30T16:07:39.478Z,25.60
2017-07-30T16:10:07.010Z,25.50
2017-07-30T16:12:34.589Z,25.50
2017-07-30T16:15:02.153Z,25.30
2017-07-30T16:17:29.713Z,25.30
2017-07-30T16:19:57.266Z,25.30
2017-07-30T16:22:24.804Z,25.20
2017-07-30T16:24:52.326Z,25.20
2017-07-30T16:27:19.880Z,25.30
2017-07-30T16:29:47.394Z,25.30
2017-07-30T16:32:14.925Z,25.60
2017-07-30T16:34:42.434Z,25.70
2017-07-30T16:37:09.970Z,25.90
2017-07-30T16:39:37.546Z,25.90
2017-07-30T16:42:05.070Z,26.00
2017-07-30T16:44:32.651Z,25.90
2017-07-30T16:47:00.162Z,25.80
2017-07-30T16:49:27.700Z,25.80
2017-07-30T16:51:55.238Z,25.80
2017-07-30T16:54:22.786Z,25.90
2017-07-30T16:56:50.294Z,25.90
2017-07-30T16:59:17.836Z,25.90
2017-07-30T17:01:45.354Z,25.90
2017-07-30T17:04:12.941Z,25.90
2017-07-30T17:06:40.453Z,25.80
2017-07-30T17:09:08.001Z,25.80
2017-07-30T17:11:35.522Z,25.70
2017-07-30T17:14:03.067Z,25.60
2017-07-30T17:16:30.595Z,25.60
2017-07-30T17:18:58.146Z,25.50
2017-07-30T17:21:25.648Z,25.50
2017-07-30T17:23:53.173Z,25.50
2017-07-30T17:26:20.684Z,25.40
2017-07-30T17:28:48.213Z,25.40
2017-07-30T17:31:15.725Z,25.40
2017-07-30T17:33:43.252Z,25.20
2017-07-30T17:36:10.769Z,25.10
2017-07-30T17:38:38.291Z,25.00
2017-07-30T17:41:05.801Z,24.90
2017-07-30T17:43:33.324Z,24.90
2017-07-30T17:46:00.834Z,24.80
2017-07-30T17:48:28.379Z,24.80
2017-07-30T17:50:55.890Z,24.70
2017-07-30T17:53:23.416Z,24.70
2017-07-30T17:55:50.950Z,24.60
2017-07-30T17:58:18.472Z,24.50
2017-07-30T18:00:46.025Z,24.40
2017-07-30T18:03:13.568Z,24.20
2017-07-30T18:05:41.091Z,24.10
2017-07-30T18:08:08.630Z,24.00
2017-07-30T18:10:36.155Z,24.00
2017-07-30T18:13:03.698Z,23.90
2017-07-30T18:15:31.235Z,23.80
2017-07-30T18:17:58.766Z,23.80
2017-07-30T18:20:26.291Z,23.80
2017-07-30T18:22:53.833Z,23.70
2017-07-30T18:25:21.367Z,23.60
2017-07-30T18:27:48.897Z,23.50
2017-07-30T18:30:16.426Z,23.40
2017-07-30T18:32:46.387Z,23.40
2017-07-30T18:35:13.938Z,23.30
2017-07-30T18:37:41.480Z,23.20
2017-07-30T18:40:08.977Z,23.10
2017-07-30T18:42:36.508Z,23.10
2017-07-30T18:45:04.005Z,23.00
2017-07-30T18:47:31.521Z,23.10
2017-07-30T18:49:59.024Z,23.00
2017-07-30T18:52:26.532Z,23.00
2017-07-30T18:54:54.043Z,23.00
2017-07-30T18:57:21.561Z,23.00
2017-07-30T18:59:49.068Z,22.90
2017-07-30T19:02:16.588Z,22.90
2017-07-30T19:04:44.108Z,22.80
2017-07-30T19:07:11.621Z,22.80
2017-07-30T19:09:39.134Z,22.80
2017-07-30T19:12:06.633Z,22.70
2017-07-30T19:14:34.168Z,22.60
2017-07-30T19:17:01.674Z,22.60
2017-07-30T19:19:29.185Z,22.60
2017-07-30T19:21:56.688Z,22.60
2017-07-30T19:24:24.204Z,22.60
2017-07-30T19:26:51.709Z,22.50
2017-07-30T19:29:19.229Z,22.50
2017-07-30T19:31:46.741Z,22.30
2017-07-30T19:34:14.265Z,22.20
2017-07-30T19:36:41.775Z,22.10
2017-07-30T19:39:09.296Z,22.10
2017-07-30T19:41:36.799Z,22.00
2017-07-30T19:44:04.327Z,22.00
2017-07-30T19:46:31.846Z,21.90
2017-07-30T19:48:59.369Z,21.90
2017-07-30T19:51:26.879Z,21.80
2017-07-30T19:53:54.402Z,21.80
2017-07-30T19:56:21.910Z,21.70
2017-07-30T19:58:49.436Z,21.60
2017-07-30T20:01:16.945Z,21.60
2017-07-30T20:03:44.454Z,21.60
2017-07-30T20:06:11.977Z,21.50
2017-07-30T20:08:39.511Z,21.40
2017-07-30T20:11:07.027Z,21.40
2017-07-30T20:13:34.544Z,21.40
2017-07-30T20:16:02.071Z,21.40
2017-07-30T20:18:29.598Z,21.40
2017-07-30T20:20:57.130Z,21.40
2017-07-30T20:23:24.650Z,21.40
2017-07-30T20:25:52.294Z,21.30
2017-07-30T20:28:19.866Z,21.30
2017-07-30T20:30:47.519Z,21.30
2017-07-30T20:33:20.966Z,21.20
2017-07-30T20:35:49.506Z,21.20
2017-07-30T20:38:17.123Z,21.10
2017-07-30T20:40:44.825Z,21.10
2017-07-30T20:43:12.514Z,21.00
2017-07-30T20:45:42.096Z,21.00
2017-07-30T20:48:09.653Z,20.90
2017-07-30T20:50:38.192Z,20.90
2017-07-30T20:53:05.856Z,20.90
2017-07-30T20:55:40.492Z,20.80
2017-07-30T20:58:32.083Z,20.70
2017-07-30T21:00:59.732Z,20.70
2017-07-30T21:03:27.283Z,20.70
2017-07-30T21:05:54.862Z,20.70
2017-07-30T21:08:22.433Z,20.70
2017-07-30T21:10:50.008Z,20.70
2017-07-30T21:13:17.550Z,20.70
2017-07-30T21:15:46.067Z,20.70
2017-07-30T21:18:13.656Z,20.70
2017-07-30T21:20:41.231Z,20.80
2017-07-30T21:23:08.788Z,20.80
2017-07-30T21:25:36.581Z,20.80
2017-07-30T21:28:04.154Z,20.80
2017-07-30T21:30:31.764Z,20.90
2017-07-30T21:32:59.569Z,20.90
2017-07-30T21:35:29.375Z,20.80
2017-07-30T21:37:57.004Z,20.80
2017-07-30T21:40:24.624Z,20.80
2017-07-30T21:42:55.079Z,20.80
2017-07-30T21:45:22.678Z,20.80
2017-07-30T21:47:50.290Z,20.70
2017-07-30T21:50:17.927Z,20.60
2017-07-30T21:52:45.574Z,20.60
2017-07-30T21:55:17.735Z,20.60
2017-07-30T21:57:45.337Z,20.60
2017-07-30T22:00:12.942Z,20.60
2017-07-30T22:02:40.515Z,20.60
2017-07-30T22:05:08.285Z,20.60
2017-07-30T22:07:35.924Z,20.50
2017-07-30T22:10:03.512Z,20.50
2017-07-30T22:12:31.129Z,20.40
2017-07-30T22:14:58.678Z,20.40
2017-07-30T22:17:26.238Z,20.40
2017-07-30T22:19:53.790Z,20.40
2017-07-30T22:22:21.667Z,20.40
2017-07-30T22:24:49.193Z,20.40
2017-07-30T22:27:16.788Z,20.30
2017-07-30T22:29:44.418Z,20.20
2017-07-30T22:32:12.051Z,20.20
2017-07-30T22:34:39.669Z,20.10
2017-07-30T22:37:07.245Z,20.10
2017-07-30T22:39:34.804Z,20.10
2017-07-30T22:42:02.385Z,20.00
2017-07-30T22:44:29.929Z,20.00
2017-07-30T22:46:57.525Z,20.00
2017-07-30T22:49:25.039Z,20.10
2017-07-30T22:51:52.643Z,20.00
2017-07-30T22:54:20.165Z,20.10
2017-07-30T22:56:47.748Z,20.00
2017-07-30T22:59:15.318Z,20.00
2017-07-30T23:01:42.905Z,20.00
2017-07-30T23:04:10.501Z,20.00
2017-07-30T23:06:38.036Z,19.90
2017-07-30T23:09:05.633Z,19.90
2017-07-30T23:11:33.166Z,19.90
2017-07-30T23:14:03.989Z,19.90
2017-07-30T23:16:31.523Z,19.90
2017-07-30T23:18:59.057Z,19.80
2017-07-30T23:21:27.456Z,19.80
2017-07-30T23:23:55.036Z,19.80
2017-07-30T23:26:22.558Z,19.80
2017-07-30T23:28:50.097Z,19.70
2017-07-30T23:31:17.641Z,19.80
2017-07-30T23:33:45.201Z,19.80
2017-07-30T23:36:13.651Z,19.70
2017-07-30T23:38:41.215Z,19.70
2017-07-30T23:41:08.739Z,19.70
2017-07-30T23:43:36.306Z,19.70
2017-07-30T23:46:05.849Z,19.70
2017-07-30T23:48:33.402Z,19.70
2017-07-30T23:51:00.922Z,19.70
2017-07-30T23:53:28.525Z,19.70
2017-07-30T23:55:59.972Z,19.70
2017-07-30T23:58:27.528Z,19.70
